Time;durP1;ratioP1;P1;durP2;ratioP2;P2;SDS_P1;SDS_P2;PMS_P1;PMS_P2;Temp;Humidity;BMP_temperature;BMP_pressure;BME280_temperature;BME280_humidity;BME280_pressure;Samples;Min_cycle;Max_cycle;Signal;HPM_P1;HPM_P2
2021/10/25 00:01:07;;;;;;;16.40;8.10;;;2.50;99.90;;;;;;5038533;28;20456;-67
2021/10/25 00:03:34;;;;;;;21.40;8.83;;;2.50;99.90;;;;;;5037833;28;20448;-68
2021/10/25 00:06:01;;;;;;;17.43;9.47;;;2.40;99.90;;;;;;5038505;28;20325;-67
2021/10/25 00:08:28;;;;;;;17.37;9.00;;;2.40;99.90;;;;;;5038458;28;20053;-67
2021/10/25 00:10:56;;;;;;;16.63;8.13;;;2.40;99.90;;;;;;5039923;28;20057;-68
2021/10/25 00:13:29;;;;;;;17.27;8.70;;;2.50;99.90;;;;;;5037978;28;20065;-67
2021/10/25 00:15:57;;;;;;;19.87;8.47;;;2.50;99.90;;;;;;5037369;28;20497;-68
2021/10/25 00:18:23;;;;;;;15.60;7.93;;;2.40;99.90;;;;;;5038467;28;20053;-67
2021/10/25 00:20:50;;;;;;;16.17;8.87;;;2.30;99.90;;;;;;5037120;28;20061;-67
2021/10/25 00:23:17;;;;;;;17.90;8.93;;;2.30;99.90;;;;;;5037737;28;20075;-68
2021/10/25 00:25:45;;;;;;;17.07;8.80;;;2.30;99.90;;;;;;5037340;28;20057;-67
2021/10/25 00:28:13;;;;;;;12.97;7.37;;;2.30;99.90;;;;;;5037945;28;20052;-68
2021/10/25 00:30:40;;;;;;;15.87;8.20;;;2.20;99.90;;;;;;5038546;28;20460;-67
2021/10/25 00:33:07;;;;;;;14.60;8.33;;;2.20;99.90;;;;;;5037840;28;20049;-68
2021/10/25 00:35:34;;;;;;;16.83;9.33;;;2.40;99.90;;;;;;5037121;28;20060;-67
2021/10/25 00:38:01;;;;;;;16.17;8.40;;;2.20;99.90;;;;;;5038618;28;20456;-67
2021/10/25 00:40:28;;;;;;;16.20;8.07;;;2.10;99.90;;;;;;5038760;28;20784;-70
2021/10/25 00:42:55;;;;;;;19.73;8.80;;;2.20;99.90;;;;;;5038983;28;20308;-68
2021/10/25 00:45:24;;;;;;;14.70;8.30;;;2.10;99.90;;;;;;5037752;28;20049;-68
2021/10/25 00:47:51;;;;;;;18.80;8.43;;;2.00;99.90;;;;;;5038406;28;20064;-67
2021/10/25 00:50:18;;;;;;;15.77;8.17;;;2.10;99.90;;;;;;5038295;28;20091;-68
2021/10/25 00:52:45;;;;;;;17.17;8.47;;;2.10;99.90;;;;;;5038551;28;20425;-68
2021/10/25 00:55:13;;;;;;;15.90;8.63;;;2.00;99.90;;;;;;5038400;28;20114;-68
2021/10/25 00:57:41;;;;;;;17.53;8.07;;;2.00;99.90;;;;;;5038590;28;20106;-68
2021/10/25 01:00:09;;;;;;;18.03;8.77;;;2.00;99.90;;;;;;5038228;28;20130;-68
2021/10/25 01:02:38;;;;;;;17.40;9.17;;;2.00;99.90;;;;;;5038039;28;20492;-68
2021/10/25 01:05:06;;;;;;;16.73;8.00;;;2.10;99.90;;;;;;5038549;28;20464;-68
2021/10/25 01:07:35;;;;;;;13.80;7.60;;;2.00;99.90;;;;;;5038118;28;20122;-68
2021/10/25 01:10:04;;;;;;;17.93;8.37;;;2.00;99.90;;;;;;5039912;28;20057;-68
2021/10/25 01:12:32;;;;;;;18.03;8.27;;;1.90;99.90;;;;;;5038589;28;20067;-68
2021/10/25 01:14:59;;;;;;;15.67;7.97;;;2.00;99.90;;;;;;5037828;28;20061;-68
2021/10/25 01:17:27;;;;;;;16.80;8.33;;;1.80;99.90;;;;;;5036552;28;20089;-68
2021/10/25 01:19:57;;;;;;;14.47;7.60;;;1.80;99.90;;;;;;5036175;28;20056;-68
2021/10/25 01:22:24;;;;;;;14.30;7.60;;;1.90;99.90;;;;;;5035101;28;20742;-69
2021/10/25 01:24:52;;;;;;;17.10;7.70;;;1.90;99.90;;;;;;5036108;28;20076;-68
2021/10/25 01:27:20;;;;;;;18.97;9.13;;;1.80;99.90;;;;;;5034434;28;20111;-68
2021/10/25 01:29:48;;;;;;;15.10;8.00;;;1.70;99.90;;;;;;5036541;28;20084;-68
2021/10/25 01:32:16;;;;;;;15.53;7.90;;;1.70;99.90;;;;;;5035119;28;20100;-68
2021/10/25 01:34:43;;;;;;;16.57;8.30;;;1.70;99.90;;;;;;5037435;28;20087;-68
2021/10/25 01:37:11;;;;;;;17.87;7.87;;;1.70;99.90;;;;;;5039407;28;20056;-68
2021/10/25 01:39:39;;;;;;;19.47;8.37;;;1.70;99.90;;;;;;5037908;28;20418;-68
2021/10/25 01:42:07;;;;;;;15.40;7.47;;;1.60;99.90;;;;;;5038676;28;20053;-68
2021/10/25 01:44:35;;;;;;;14.43;7.47;;;1.60;99.90;;;;;;5039459;28;20115;-69
2021/10/25 01:47:02;;;;;;;14.03;7.20;;;1.60;99.90;;;;;;5038939;28;20096;-68
2021/10/25 01:49:29;;;;;;;17.30;7.27;;;1.60;99.90;;;;;;5038602;28;20092;-68
2021/10/25 01:51:56;;;;;;;17.27;7.50;;;1.50;99.90;;;;;;5038880;28;20562;-69
2021/10/25 01:54:25;;;;;;;17.20;7.30;;;1.50;99.90;;;;;;5038619;28;20095;-68
2021/10/25 01:56:52;;;;;;;17.77;8.63;;;1.60;99.90;;;;;;5038660;28;20102;-68
2021/10/25 01:59:19;;;;;;;20.33;7.80;;;1.50;99.90;;;;;;5038803;28;20147;-68
2021/10/25 02:01:47;;;;;;;18.67;8.07;;;1.40;99.90;;;;;;5038889;28;20045;-69
2021/10/25 02:04:14;;;;;;;16.33;8.67;;;1.50;99.90;;;;;;5038128;28;20536;-68
2021/10/25 02:06:41;;;;;;;14.50;8.30;;;1.50;99.90;;;;;;5038076;28;20095;-68
2021/10/25 02:09:09;;;;;;;14.17;7.63;;;1.60;99.90;;;;;;5039005;28;20056;-68
2021/10/25 02:11:37;;;;;;;16.50;7.60;;;1.60;99.90;;;;;;5037805;28;20106;-69
2021/10/25 02:14:04;;;;;;;18.80;8.43;;;1.50;99.90;;;;;;5036935;28;20106;-69
2021/10/25 02:16:31;;;;;;;15.77;7.90;;;1.40;99.90;;;;;;5035778;28;20106;-70
2021/10/25 02:18:58;;;;;;;15.57;8.30;;;1.40;99.90;;;;;;5036359;28;20487;-68
2021/10/25 02:21:25;;;;;;;14.70;7.30;;;1.40;99.90;;;;;;5037361;28;20085;-68
2021/10/25 02:23:53;;;;;;;14.70;7.67;;;1.30;99.90;;;;;;5037703;28;20056;-68
2021/10/25 02:26:19;;;;;;;15.97;7.60;;;1.20;99.90;;;;;;5036350;28;20114;-68
2021/10/25 02:28:48;;;;;;;19.80;7.80;;;1.20;99.90;;;;;;5038721;28;20299;-68
2021/10/25 02:31:15;;;;;;;14.77;7.07;;;1.30;99.90;;;;;;5038297;28;20090;-69
2021/10/25 02:33:42;;;;;;;13.70;7.20;;;1.30;99.90;;;;;;5037363;28;20056;-69
2021/10/25 02:36:09;;;;;;;15.00;7.33;;;1.20;99.90;;;;;;5037088;28;20149;-69
2021/10/25 02:38:38;;;;;;;16.70;7.50;;;1.20;99.90;;;;;;5037124;28;20873;-70
2021/10/25 02:41:05;;;;;;;17.17;7.77;;;1.20;99.90;;;;;;5037991;28;20490;-69
2021/10/25 02:43:32;;;;;;;12.60;7.17;;;1.10;99.90;;;;;;5037156;28;20064;-69
2021/10/25 02:46:01;;;;;;;14.50;7.17;;;1.10;99.90;;;;;;5035986;28;20092;-69
2021/10/25 02:48:29;;;;;;;15.93;7.30;;;1.10;99.90;;;;;;5037242;28;20053;-69
2021/10/25 02:50:56;;;;;;;16.17;9.13;;;1.20;99.90;;;;;;5037053;28;20072;-69
2021/10/25 02:53:24;;;;;;;19.03;8.73;;;1.20;99.90;;;;;;5037176;28;20049;-69
2021/10/25 02:55:51;;;;;;;14.87;7.37;;;1.10;99.90;;;;;;5036362;28;20053;-69
2021/10/25 02:58:18;;;;;;;14.87;7.90;;;1.20;99.90;;;;;;5037700;28;20053;-69
2021/10/25 03:00:45;;;;;;;16.53;8.03;;;1.20;99.90;;;;;;5037199;28;20123;-69
2021/10/25 03:03:14;;;;;;;15.63;8.20;;;1.10;99.90;;;;;;5036359;28;20048;-69
2021/10/25 03:05:41;;;;;;;21.67;8.60;;;1.20;99.90;;;;;;5036490;28;20115;-69
2021/10/25 03:08:08;;;;;;;21.00;9.23;;;1.10;99.90;;;;;;5036627;28;20081;-69
2021/10/25 03:10:35;;;;;;;21.07;8.43;;;1.00;99.90;;;;;;5037620;28;20053;-69
2021/10/25 03:13:02;;;;;;;22.70;9.47;;;1.00;99.90;;;;;;5036088;28;21286;-69
2021/10/25 03:15:29;;;;;;;22.73;9.33;;;1.00;99.90;;;;;;5035985;28;20049;-69
2021/10/25 03:17:56;;;;;;;18.23;8.60;;;1.00;99.90;;;;;;5037061;28;20053;-69
2021/10/25 03:20:24;;;;;;;18.03;7.90;;;1.00;99.90;;;;;;5036348;28;20080;-69
2021/10/25 03:22:51;;;;;;;16.20;7.67;;;1.00;99.90;;;;;;5036888;28;20433;-69
2021/10/25 03:25:18;;;;;;;15.03;7.43;;;1.10;99.90;;;;;;5036487;28;20052;-69
2021/10/25 03:27:47;;;;;;;19.10;7.67;;;1.00;99.90;;;;;;5036621;28;20045;-69
2021/10/25 03:30:15;;;;;;;18.37;8.20;;;0.90;99.90;;;;;;5036492;28;20052;-69
2021/10/25 03:32:42;;;;;;;19.13;8.33;;;0.80;99.90;;;;;;5035999;28;20063;-69
2021/10/25 03:35:09;;;;;;;16.93;7.43;;;0.80;99.90;;;;;;5036052;28;20413;-69
2021/10/25 03:37:39;;;;;;;15.47;6.73;;;0.80;99.90;;;;;;5035829;28;21542;-69
2021/10/25 03:40:08;;;;;;;12.67;6.37;;;0.80;99.90;;;;;;5036208;28;20123;-69
2021/10/25 03:42:40;;;;;;;15.00;6.50;;;0.70;99.90;;;;;;5034733;28;20049;-69
2021/10/25 03:45:12;;;;;;;14.80;6.50;;;0.80;99.90;;;;;;5035131;28;20053;-69
2021/10/25 03:47:44;;;;;;;17.03;7.10;;;0.80;99.90;;;;;;5035548;28;20092;-68
2021/10/25 03:50:14;;;;;;;15.73;6.90;;;0.80;99.90;;;;;;5035908;28;20159;-69
2021/10/25 03:52:49;;;;;;;13.03;7.07;;;0.70;99.90;;;;;;5035731;28;20076;-69
2021/10/25 03:55:20;;;;;;;20.57;7.40;;;0.80;99.90;;;;;;5035611;28;20049;-69
2021/10/25 04:03:49;;;;;;;15.17;7.10;;;0.80;99.90;;;;;;5036859;28;20053;-69
2021/10/25 04:28:30;;;;;;;22.60;8.57;;;0.70;99.90;;;;;;5035894;28;20049;-69
2021/10/25 04:30:58;;;;;;;19.63;8.50;;;0.70;99.90;;;;;;5037199;28;20140;-69
2021/10/25 04:33:25;;;;;;;16.30;7.97;;;0.60;99.90;;;;;;5035527;28;20056;-69
2021/10/25 04:35:52;;;;;;;19.37;9.47;;;0.60;99.90;;;;;;5035036;28;20053;-69
2021/10/25 04:38:19;;;;;;;21.90;8.33;;;0.60;99.90;;;;;;5035845;28;20111;-69
2021/10/25 04:40:48;;;;;;;24.60;8.90;;;0.60;99.90;;;;;;5035662;28;20170;-69
2021/10/25 04:43:17;;;;;;;20.07;8.57;;;0.50;99.90;;;;;;5035362;28;20072;-69
2021/10/25 04:45:45;;;;;;;17.40;8.80;;;0.50;99.90;;;;;;5034694;28;20056;-69
2021/10/25 04:48:13;;;;;;;21.23;9.20;;;0.40;99.90;;;;;;5034391;28;20509;-69
2021/10/25 04:50:41;;;;;;;15.73;8.30;;;0.40;99.90;;;;;;5034505;28;20417;-69
2021/10/25 04:53:08;;;;;;;25.03;9.23;;;0.40;99.90;;;;;;5034839;28;20116;-69
2021/10/25 04:55:36;;;;;;;18.43;9.03;;;0.50;99.90;;;;;;5034088;28;20085;-69
2021/10/25 04:58:04;;;;;;;21.77;8.70;;;0.60;99.90;;;;;;5034323;28;20048;-70
2021/10/25 05:00:31;;;;;;;21.23;9.30;;;0.70;99.90;;;;;;5035204;28;20064;-70
2021/10/25 05:02:59;;;;;;;21.57;8.87;;;0.70;99.90;;;;;;5034927;28;20071;-70
2021/10/25 05:05:26;;;;;;;18.10;8.63;;;0.60;99.90;;;;;;5033781;28;20487;-70
2021/10/25 05:07:54;;;;;;;24.07;10.77;;;0.50;99.90;;;;;;5034376;28;20768;-69
2021/10/25 05:10:21;;;;;;;23.23;9.80;;;0.60;99.90;;;;;;5038015;28;20049;-69
2021/10/25 05:12:48;;;;;;;27.73;9.40;;;0.50;99.90;;;;;;5039233;28;20095;-69
2021/10/25 05:15:16;;;;;;;21.40;9.03;;;0.40;99.90;;;;;;5038376;28;20509;-70
2021/10/25 05:17:43;;;;;;;18.83;8.30;;;0.30;99.90;;;;;;5039288;28;20117;-69
2021/10/25 05:20:11;;;;;;;21.00;8.50;;;0.40;99.90;;;;;;5037720;28;20064;-69
2021/10/25 05:22:38;;;;;;;19.40;9.20;;;0.40;99.90;;;;;;5038374;28;20151;-69
2021/10/25 05:25:06;;;;;;;19.43;9.33;;;0.30;99.90;;;;;;5037120;28;20565;-70
2021/10/25 05:27:33;;;;;;;27.33;9.70;;;0.20;99.90;;;;;;5036162;28;20056;-71
2021/10/25 05:30:00;;;;;;;19.00;8.73;;;0.30;99.90;;;;;;5038124;28;20337;-70
2021/10/25 05:32:28;;;;;;;20.80;8.67;;;0.30;99.90;;;;;;5037415;28;20758;-70
2021/10/25 05:34:56;;;;;;;22.47;9.77;;;0.40;99.90;;;;;;5037426;28;20134;-70
2021/10/25 05:37:24;;;;;;;24.40;9.40;;;0.30;99.90;;;;;;5037465;28;20946;-70
2021/10/25 05:39:51;;;;;;;21.63;9.50;;;0.40;99.90;;;;;;5037753;28;20510;-69
2021/10/25 05:42:18;;;;;;;16.00;8.50;;;0.40;99.90;;;;;;5036192;28;20041;-70
2021/10/25 05:44:45;;;;;;;16.10;7.83;;;0.40;99.90;;;;;;5038291;28;20102;-69
2021/10/25 05:47:12;;;;;;;24.00;9.30;;;0.40;99.90;;;;;;5038936;28;20145;-69
2021/10/25 05:49:41;;;;;;;19.93;10.03;;;0.40;99.90;;;;;;5039354;28;20119;-69
2021/10/25 05:52:08;;;;;;;19.17;9.90;;;0.30;99.90;;;;;;5038594;28;20060;-69
2021/10/25 05:54:35;;;;;;;18.57;9.13;;;0.40;99.90;;;;;;5037617;28;20056;-70
2021/10/25 05:57:03;;;;;;;29.50;10.93;;;0.40;99.90;;;;;;5037852;28;20543;-69
2021/10/25 05:59:33;;;;;;;27.77;11.00;;;0.40;99.90;;;;;;5037666;28;20460;-69
2021/10/25 06:02:08;;;;;;;31.47;12.03;;;0.30;99.90;;;;;;5036462;28;20064;-69
2021/10/25 06:04:35;;;;;;;32.67;11.73;;;0.10;99.90;;;;;;5037224;28;20056;-69
2021/10/25 06:07:04;;;;;;;37.73;12.27;;;0.20;99.90;;;;;;5036666;28;20057;-69
2021/10/25 06:09:34;;;;;;;26.57;12.50;;;0.40;99.90;;;;;;5037782;28;20110;-70
2021/10/25 06:12:04;;;;;;;27.13;11.50;;;0.50;99.90;;;;;;5036853;28;20600;-69
2021/10/25 06:14:36;;;;;;;28.57;11.43;;;0.40;99.90;;;;;;5037357;28;20412;-69
2021/10/25 06:17:13;;;;;;;28.97;11.70;;;0.30;99.90;;;;;;5037332;28;20065;-69
2021/10/25 06:19:40;;;;;;;34.57;12.20;;;0.30;99.90;;;;;;5037562;28;20160;-68
2021/10/25 06:22:09;;;;;;;27.50;11.20;;;0.20;99.90;;;;;;5036585;28;20057;-68
2021/10/25 06:24:36;;;;;;;33.47;12.97;;;0.30;99.90;;;;;;5038058;28;20771;-68
2021/10/25 06:27:03;;;;;;;27.37;11.30;;;0.40;99.90;;;;;;5038121;28;20053;-68
2021/10/25 06:29:31;;;;;;;26.97;11.33;;;0.40;99.90;;;;;;5036821;28;20481;-70
2021/10/25 06:31:58;;;;;;;30.13;11.73;;;0.50;99.90;;;;;;5036121;28;20055;-69
2021/10/25 06:34:28;;;;;;;26.53;11.33;;;0.60;99.90;;;;;;5037260;28;20747;-69
2021/10/25 06:36:55;;;;;;;20.27;10.40;;;0.70;99.90;;;;;;5036009;28;20049;-68
2021/10/25 06:39:29;;;;;;;28.83;11.30;;;0.80;99.90;;;;;;5036844;28;20053;-69
2021/10/25 06:41:57;;;;;;;25.03;11.10;;;0.80;99.90;;;;;;5036937;28;20497;-68
2021/10/25 06:44:24;;;;;;;24.60;10.83;;;0.70;99.90;;;;;;5036503;28;20138;-69
2021/10/25 06:46:52;;;;;;;29.90;11.13;;;0.80;99.90;;;;;;5036752;28;20616;-69
2021/10/25 06:49:18;;;;;;;22.37;11.43;;;0.80;99.90;;;;;;5037685;28;20057;-68
2021/10/25 06:51:46;;;;;;;24.60;10.40;;;1.00;99.90;;;;;;5036843;28;20484;-68
2021/10/25 06:54:13;;;;;;;22.13;10.83;;;1.10;99.90;;;;;;5036736;28;20059;-68
2021/10/25 06:56:42;;;;;;;24.70;11.03;;;1.10;99.90;;;;;;5035920;28;20168;-69
2021/10/25 06:59:09;;;;;;;28.87;10.93;;;1.20;99.90;;;;;;5037124;28;20571;-69
2021/10/25 07:01:36;;;;;;;23.33;10.70;;;1.40;99.90;;;;;;5036587;28;20049;-69
2021/10/25 07:04:04;;;;;;;26.00;11.53;;;1.40;99.90;;;;;;5036799;28;20057;-69
2021/10/25 07:06:32;;;;;;;25.93;11.13;;;1.50;99.90;;;;;;5035934;28;20881;-69
2021/10/25 07:09:01;;;;;;;23.63;10.20;;;1.60;99.90;;;;;;5037020;28;20060;-69
2021/10/25 07:11:29;;;;;;;31.87;12.43;;;1.70;99.90;;;;;;5036080;28;20071;-69
2021/10/25 07:13:58;;;;;;;26.07;11.37;;;1.80;99.90;;;;;;5036695;28;20095;-69
2021/10/25 07:16:29;;;;;;;25.50;11.13;;;1.80;99.90;;;;;;5035788;28;20056;-68
2021/10/25 08:05:55;;;;;;;24.43;13.70;;;3.70;99.90;;;;;;5035720;28;20076;-73
2021/10/25 08:08:45;;;;;;;22.00;11.05;;;4.20;99.90;;;;;;5036029;28;20219;-69
2021/10/25 08:11:13;;;;;;;23.13;11.60;;;4.90;99.90;;;;;;5035125;28;21330;-69
2021/10/25 08:13:41;;;;;;;22.10;11.60;;;6.30;99.90;;;;;;5034677;28;20045;-69
2021/10/25 08:16:13;;;;;;;25.33;10.03;;;9.00;99.90;;;;;;5035211;28;20048;-69
2021/10/25 08:19:10;;;;;;;24.33;10.68;;;10.40;99.90;;;;;;5034904;28;20502;-69
2021/10/25 08:21:37;;;;;;;31.02;10.98;;;8.60;99.90;;;;;;5034267;28;20064;-69
2021/10/25 08:24:05;;;;;;;22.27;9.88;;;11.00;99.90;;;;;;5033768;28;20396;-68
2021/10/25 08:26:32;;;;;;;24.63;12.02;;;13.90;99.90;;;;;;5031794;28;20057;-68
2021/10/25 08:29:03;;;;;;;24.67;12.60;;;13.70;99.90;;;;;;5033702;28;20106;-69
2021/10/25 08:31:33;;;;;;;20.85;11.52;;;15.00;99.90;;;;;;5033168;28;20049;-69
2021/10/25 08:39:48;;;;;;;24.98;13.43;;;15.90;99.90;;;;;;5006966;28;20045;-69
2021/10/25 08:42:16;;;;;;;24.67;12.93;;;16.00;99.90;;;;;;5033045;28;20049;-69
2021/10/25 08:44:44;;;;;;;21.10;11.90;;;15.70;99.70;;;;;;5035588;28;20060;-69
2021/10/25 08:47:15;;;;;;;16.17;9.88;;;16.00;99.50;;;;;;5036562;28;20063;-69
2021/10/25 08:49:43;;;;;;;16.77;10.85;;;14.90;99.80;;;;;;5036676;28;20057;-69
2021/10/25 08:52:11;;;;;;;19.95;10.35;;;13.40;99.90;;;;;;5036940;28;20049;-69
2021/10/25 08:54:38;;;;;;;21.77;10.98;;;13.30;99.90;;;;;;5037384;28;20774;-69
2021/10/25 08:57:05;;;;;;;24.10;10.45;;;12.20;99.90;;;;;;5037062;28;20103;-66
2021/10/25 08:59:32;;;;;;;23.85;11.77;;;11.60;99.90;;;;;;5035897;28;20067;-67
2021/10/25 09:02:06;;;;;;;20.50;10.25;;;11.70;99.90;;;;;;5036947;28;20060;-66
2021/10/25 09:04:33;;;;;;;14.45;9.18;;;12.30;99.90;;;;;;5036227;28;20533;-66
2021/10/25 09:07:02;;;;;;;16.02;9.60;;;14.40;99.90;;;;;;5035797;28;20080;-66
2021/10/25 09:09:31;;;;;;;16.05;7.97;;;14.20;99.90;;;;;;5036645;28;20049;-66
2021/10/25 09:12:05;;;;;;;14.30;8.25;;;15.30;99.90;;;;;;5036104;28;20098;-66
2021/10/25 09:14:35;;;;;;;14.23;9.07;;;14.30;99.90;;;;;;5036577;28;20140;-69
2021/10/25 09:17:10;;;;;;;25.70;9.75;;;14.00;99.90;;;;;;5036026;28;20571;-69
2021/10/25 09:19:41;;;;;;;17.48;9.90;;;13.50;99.90;;;;;;5036810;28;22326;-69
2021/10/25 09:22:13;;;;;;;20.15;10.02;;;14.60;99.90;;;;;;5037381;28;20084;-69
2021/10/25 09:24:40;;;;;;;15.10;8.57;;;15.80;99.90;;;;;;5036519;28;20484;-68
2021/10/25 09:27:09;;;;;;;14.57;8.38;;;15.60;99.90;;;;;;5035576;28;20490;-68
2021/10/25 09:29:40;;;;;;;13.30;8.15;;;13.30;99.90;;;;;;5036568;28;20064;-68
2021/10/25 09:32:10;;;;;;;14.68;7.75;;;13.90;99.90;;;;;;5035810;28;20056;-68
2021/10/25 09:34:45;;;;;;;13.48;7.53;;;14.20;99.90;;;;;;5036249;28;20334;-68
2021/10/25 09:37:16;;;;;;;14.32;7.70;;;14.70;99.90;;;;;;5035202;28;20049;-68
2021/10/25 09:39:52;;;;;;;12.60;7.65;;;13.80;99.90;;;;;;5035923;28;20053;-68
2021/10/25 09:50:59;;;;;;;13.32;7.43;;;12.10;99.90;;;;;;5036625;28;20697;-68
2021/10/25 09:53:32;;;;;;;12.52;6.80;;;12.10;99.90;;;;;;5035035;28;20057;-68
2021/10/25 09:55:59;;;;;;;15.10;7.13;;;12.10;99.90;;;;;;5035385;28;20052;-68
2021/10/25 09:58:28;;;;;;;14.25;7.22;;;11.40;99.90;;;;;;5034164;28;20547;-68
2021/10/25 10:00:55;;;;;;;12.57;7.40;;;12.00;99.90;;;;;;5034869;28;20056;-68
2021/10/25 10:03:22;;;;;;;15.00;7.75;;;12.60;99.90;;;;;;5034128;28;20126;-68
2021/10/25 10:05:50;;;;;;;12.00;6.97;;;12.10;99.90;;;;;;5033524;28;20053;-68
2021/10/25 10:08:19;;;;;;;13.65;7.60;;;12.10;99.90;;;;;;5034352;28;20063;-68
2021/10/25 10:10:47;;;;;;;32.63;7.72;;;12.50;99.90;;;;;;5035338;28;20528;-67
2021/10/25 10:13:18;;;;;;;14.75;7.85;;;13.90;99.90;;;;;;5033693;28;20547;-67
2021/10/25 10:15:46;;;;;;;12.98;7.72;;;14.80;99.90;;;;;;5034100;28;20583;-68
2021/10/25 10:18:19;;;;;;;14.05;7.45;;;15.00;99.90;;;;;;5034072;28;20100;-69
2021/10/25 10:20:50;;;;;;;12.57;7.45;;;15.10;99.90;;;;;;5035773;28;20493;-68
2021/10/25 10:23:19;;;;;;;14.70;8.02;;;13.80;99.90;;;;;;5035841;28;20053;-68
2021/10/25 10:25:53;;;;;;;12.57;8.00;;;13.70;99.90;;;;;;5034370;28;20060;-68
2021/10/25 10:28:31;;;;;;;11.98;7.18;;;15.00;99.90;;;;;;5033789;28;20052;-68
2021/10/25 10:31:01;;;;;;;17.10;7.65;;;15.60;99.90;;;;;;5034420;28;20060;-68
2021/10/25 10:33:34;;;;;;;14.43;7.70;;;15.20;99.90;;;;;;5034746;28;20107;-68
2021/10/25 10:36:12;;;;;;;17.23;7.93;;;15.40;99.90;;;;;;5035360;28;20063;-68
2021/10/25 10:38:51;;;;;;;15.52;8.30;;;15.70;99.90;;;;;;5034293;28;20460;-68
2021/10/25 10:41:22;;;;;;;15.07;7.95;;;16.60;99.90;;;;;;5034562;28;20049;-68
2021/10/25 10:44:00;;;;;;;14.80;8.35;;;15.80;99.90;;;;;;5036284;28;20057;-68
2021/10/25 10:46:27;;;;;;;14.48;7.55;;;17.70;99.90;;;;;;5036500;28;20407;-68
2021/10/25 10:48:55;;;;;;;15.73;7.60;;;18.60;99.90;;;;;;5035184;28;20463;-69
2021/10/25 10:51:29;;;;;;;13.65;8.15;;;21.70;98.60;;;;;;5033928;28;20060;-69
2021/10/25 10:54:05;;;;;;;14.85;7.82;;;23.30;96.60;;;;;;5034065;28;20064;-68
2021/10/25 10:56:37;;;;;;;13.93;8.30;;;23.20;94.70;;;;;;5032363;28;20086;-68
2021/10/25 10:59:19;;;;;;;17.17;7.88;;;22.70;95.50;;;;;;5034295;28;20585;-68
2021/10/25 11:01:56;;;;;;;17.40;8.18;;;24.40;94.00;;;;;;5032977;28;20513;-68
2021/10/25 11:04:30;;;;;;;13.38;7.55;;;24.60;94.80;;;;;;5034332;28;20045;-68
2021/10/25 11:07:01;;;;;;;15.43;8.18;;;24.70;94.40;;;;;;5033183;28;20048;-68
2021/10/25 11:09:32;;;;;;;15.15;8.02;;;24.00;94.40;;;;;;5034509;28;20145;-69
2021/10/25 11:12:06;;;;;;;13.77;8.25;;;24.30;93.00;;;;;;5034094;28;20752;-69
2021/10/25 11:14:36;;;;;;;13.75;7.88;;;24.00;93.30;;;;;;5034231;28;20915;-68
2021/10/25 11:17:18;;;;;;;12.85;7.43;;;25.70;93.60;;;;;;5033799;28;20056;-68
2021/10/25 11:19:48;;;;;;;12.57;7.90;;;24.40;92.90;;;;;;5034763;28;20078;-69
2021/10/25 11:22:35;;;;;;;14.90;7.97;;;26.70;92.40;;;;;;5033862;28;20088;-68
2021/10/25 11:25:05;;;;;;;14.63;7.50;;;26.00;92.20;;;;;;5033790;28;20664;-68
2021/10/25 11:27:35;;;;;;;15.18;8.65;;;24.60;92.60;;;;;;5033964;28;20135;-68
2021/10/25 11:30:09;;;;;;;18.23;8.45;;;25.40;92.30;;;;;;5033519;28;20061;-68
2021/10/25 11:32:38;;;;;;;13.60;7.88;;;24.40;92.90;;;;;;5033457;28;20052;-68
2021/10/25 11:35:09;;;;;;;18.20;8.35;;;24.40;92.90;;;;;;5033855;28;20118;-68
2021/10/25 11:37:37;;;;;;;15.85;7.88;;;24.10;93.90;;;;;;5034014;28;20064;-68
2021/10/25 11:40:07;;;;;;;14.52;7.20;;;24.90;93.80;;;;;;5034275;28;20122;-69
2021/10/25 11:42:38;;;;;;;13.07;7.53;;;23.90;93.30;;;;;;5033725;28;20136;-68
2021/10/25 11:45:07;;;;;;;15.57;7.75;;;24.30;93.10;;;;;;5034329;28;20059;-68
2021/10/25 11:47:36;;;;;;;13.55;7.95;;;24.40;92.80;;;;;;5032841;28;20501;-68
2021/10/25 11:50:06;;;;;;;14.70;7.95;;;25.40;92.40;;;;;;5032815;28;20505;-68
2021/10/25 11:52:41;;;;;;;13.05;8.65;;;26.20;91.50;;;;;;5032556;28;20063;-68
2021/10/25 11:55:09;;;;;;;15.93;8.20;;;26.70;91.20;;;;;;5031425;28;20084;-68
2021/10/25 11:57:45;;;;;;;12.82;8.10;;;26.80;92.50;;;;;;5031953;28;20049;-68
2021/10/25 12:00:12;;;;;;;10.80;7.60;;;25.10;91.90;;;;;;5032741;28;20041;-68
2021/10/25 12:02:40;;;;;;;15.05;8.18;;;23.50;93.20;;;;;;5032188;28;20114;-68
2021/10/25 12:05:08;;;;;;;14.18;8.00;;;24.40;92.60;;;;;;5031839;28;20111;-68
2021/10/25 12:07:45;;;;;;;14.68;8.55;;;25.60;92.70;;;;;;5032266;28;20114;-68
2021/10/25 12:10:12;;;;;;;14.45;7.95;;;25.60;92.10;;;;;;5032168;28;20058;-68
2021/10/25 12:12:41;;;;;;;14.00;6.97;;;26.00;91.90;;;;;;5032739;28;20049;-68
2021/10/25 12:15:13;;;;;;;12.25;7.82;;;23.60;92.80;;;;;;5031931;28;20053;-68
2021/10/25 12:17:40;;;;;;;13.73;8.00;;;23.50;94.20;;;;;;5031950;28;20052;-68
2021/10/25 12:20:11;;;;;;;15.40;7.65;;;24.90;93.30;;;;;;5032037;28;20504;-68
2021/10/25 12:22:41;;;;;;;11.90;7.65;;;24.20;92.70;;;;;;5032402;28;20510;-68
2021/10/25 12:25:09;;;;;;;11.88;7.40;;;22.90;92.90;;;;;;5031882;28;20624;-68
2021/10/25 12:27:38;;;;;;;14.18;8.38;;;21.30;95.20;;;;;;5031423;28;20123;-68
2021/10/25 12:30:11;;;;;;;12.00;7.50;;;23.60;95.10;;;;;;5032523;28;20511;-68
2021/10/25 12:32:50;;;;;;;14.27;7.38;;;24.50;94.80;;;;;;5032540;28;20053;-68
2021/10/25 12:35:17;;;;;;;16.00;8.00;;;25.30;93.70;;;;;;5034387;28;21441;-68
2021/10/25 12:37:45;;;;;;;12.60;7.50;;;25.90;93.00;;;;;;5033965;28;20053;-68
2021/10/25 12:40:17;;;;;;;10.25;7.10;;;23.90;94.00;;;;;;5032518;28;20056;-68
2021/10/25 12:42:45;;;;;;;12.32;7.20;;;25.50;93.50;;;;;;5032765;28;20048;-68
2021/10/25 12:45:19;;;;;;;13.52;7.25;;;24.20;93.10;;;;;;5033003;28;20055;-68
2021/10/25 12:47:46;;;;;;;13.02;7.13;;;24.20;93.00;;;;;;5033224;28;20065;-68
2021/10/25 12:50:15;;;;;;;12.32;7.28;;;25.00;94.50;;;;;;5033166;28;20107;-68
2021/10/25 12:52:44;;;;;;;11.40;6.43;;;24.60;93.50;;;;;;5032117;28;20426;-68
2021/10/25 12:55:12;;;;;;;11.50;6.22;;;22.40;93.50;;;;;;5032363;28;20504;-68
2021/10/25 12:57:41;;;;;;;10.43;6.18;;;21.00;95.40;;;;;;5032296;28;20082;-68
2021/10/25 13:00:10;;;;;;;11.38;6.22;;;21.00;95.60;;;;;;5032937;28;20551;-68
2021/10/25 13:02:45;;;;;;;12.30;6.20;;;20.40;95.90;;;;;;5031460;28;20088;-68
2021/10/25 13:05:15;;;;;;;10.25;5.13;;;20.20;95.50;;;;;;5032145;28;20135;-68
2021/10/25 13:07:48;;;;;;;9.18;5.25;;;20.40;95.70;;;;;;5033259;28;20057;-68
2021/10/25 13:10:16;;;;;;;11.95;5.55;;;19.70;96.00;;;;;;5034999;28;20126;-68
2021/10/25 13:12:43;;;;;;;10.82;4.97;;;18.70;95.30;;;;;;5034209;28;20141;-68
2021/10/25 13:15:11;;;;;;;9.25;4.80;;;18.00;97.10;;;;;;5033975;28;20146;-68
2021/10/25 13:17:38;;;;;;;11.20;5.55;;;18.10;97.30;;;;;;5033477;28;20057;-68
2021/10/25 13:20:08;;;;;;;10.10;4.95;;;18.70;97.60;;;;;;5033895;28;20096;-68
2021/10/25 13:22:35;;;;;;;10.23;4.88;;;18.90;96.30;;;;;;5033713;28;20118;-68
2021/10/25 13:25:02;;;;;;;8.40;4.65;;;18.80;97.00;;;;;;5034958;28;20098;-68
2021/10/25 13:27:29;;;;;;;10.05;5.20;;;18.90;97.20;;;;;;5034321;28;20114;-68
2021/10/25 13:29:56;;;;;;;8.75;4.85;;;20.20;96.90;;;;;;5034699;28;20107;-68
2021/10/25 13:32:23;;;;;;;9.88;5.53;;;20.80;96.60;;;;;;5036982;28;20056;-69
2021/10/25 13:34:51;;;;;;;11.60;5.50;;;20.50;95.70;;;;;;5038088;28;20057;-68
2021/10/25 13:37:19;;;;;;;11.85;5.72;;;20.20;95.50;;;;;;5035759;28;20079;-68
2021/10/25 13:39:46;;;;;;;8.98;5.07;;;19.60;96.90;;;;;;5037225;28;20088;-68
2021/10/25 13:42:15;;;;;;;13.95;6.22;;;19.10;97.40;;;;;;5036396;28;20532;-67
2021/10/25 13:44:45;;;;;;;8.90;4.82;;;17.80;98.40;;;;;;5036174;28;20053;-68
2021/10/25 13:47:12;;;;;;;9.73;4.70;;;17.60;98.80;;;;;;5036110;28;20061;-68
2021/10/25 13:49:39;;;;;;;9.85;4.78;;;17.30;99.90;;;;;;5036568;28;20049;-68
2021/10/25 13:52:06;;;;;;;13.77;5.45;;;18.40;98.80;;;;;;5035804;28;20095;-68
2021/10/25 13:54:35;;;;;;;9.73;5.05;;;17.90;99.20;;;;;;5036927;28;20133;-68
2021/10/25 13:57:06;;;;;;;12.82;5.90;;;17.40;99.90;;;;;;5036027;28;20067;-68
2021/10/25 13:59:34;;;;;;;12.48;5.50;;;17.40;99.70;;;;;;5036134;28;20784;-68
2021/10/25 14:02:01;;;;;;;9.15;4.90;;;17.10;99.90;;;;;;5036732;28;20056;-68
2021/10/25 14:04:28;;;;;;;11.25;4.97;;;16.80;99.90;;;;;;5036621;28;20172;-67
2021/10/25 14:06:56;;;;;;;13.20;5.18;;;16.30;99.90;;;;;;5036075;28;20068;-67
2021/10/25 14:09:23;;;;;;;10.98;5.53;;;17.20;99.90;;;;;;5037549;28;20497;-68
2021/10/25 14:11:54;;;;;;;9.63;4.78;;;16.90;99.90;;;;;;5036743;28;20418;-68
2021/10/25 14:14:25;;;;;;;9.63;5.07;;;17.30;99.90;;;;;;5036624;28;20053;-67
2021/10/25 14:16:53;;;;;;;10.95;4.97;;;17.80;99.90;;;;;;5035928;28;20084;-68
2021/10/25 14:19:21;;;;;;;12.07;4.95;;;17.10;99.90;;;;;;5035332;28;20057;-68